Cherokee Observed Data For Previous 48 Hours

Caption
Day and Hour Reservoir Elevation (behind dam)* Tailwater Elevation (below dam)* Average Hourly Discharge*
11/16/2017 2 AM EST 1,051.30 921.06 0
11/16/2017 3 AM EST 1,051.31 921.06 0
11/16/2017 4 AM EST 1,051.31 922.14 177
11/16/2017 5 AM EST 1,051.30 924.06 4,082
11/16/2017 6 AM EST 1,051.29 924.33 4,107
11/16/2017 7 AM EST 1,051.29 926.11 8,139
11/16/2017 8 AM EST 1,051.27 926.17 8,179
11/16/2017 9 AM EST 1,051.24 926.15 8,214
11/16/2017 10 AM EST 1,051.22 926.11 8,194
11/16/2017 11 AM EST 1,051.22 924.13 4,297
11/16/2017 12 PM EST 1,051.21 924.07 4,050
11/16/2017 1 PM EST 1,051.22 921.13 66
11/16/2017 2 PM EST 1,051.22 921.06 0
11/16/2017 3 PM EST 1,051.23 921.06 0
11/16/2017 4 PM EST 1,051.23 922.16 179
11/16/2017 5 PM EST 1,051.22 924.23 4,058
11/16/2017 6 PM EST 1,051.19 926.38 8,124
11/16/2017 7 PM EST 1,051.16 928.24 12,978
11/16/2017 8 PM EST 1,051.12 928.30 13,140
11/16/2017 9 PM EST 1,051.09 928.30 13,169
11/16/2017 10 PM EST 1,051.04 928.33 13,161
11/16/2017 11 PM EST 1,051.03 926.24 8,426
11/17/2017 12 AM EST 1,051.03 924.11 4,286
11/17/2017 1 AM EST 1,051.04 921.13 66
11/17/2017 2 AM EST 1,051.05 921.06 0
11/17/2017 3 AM EST 1,051.04 922.19 183
11/17/2017 4 AM EST 1,051.06 924.04 4,082
11/17/2017 5 AM EST 1,051.07 924.08 4,098
11/17/2017 6 AM EST 1,051.05 925.73 4,700
11/17/2017 7 AM EST 1,051.01 926.13 8,149
11/17/2017 8 AM EST 1,050.98 926.10 8,142
11/17/2017 9 AM EST 1,050.98 926.13 8,133
11/17/2017 10 AM EST 1,050.96 926.14 8,159
11/17/2017 11 AM EST 1,050.93 926.13 8,173
11/17/2017 12 PM EST 1,050.90 926.13 8,182
11/17/2017 1 PM EST 1,050.90 924.08 4,262
11/17/2017 2 PM EST 1,050.90 924.06 4,070
11/17/2017 3 PM EST 1,050.88 924.07 4,058
11/17/2017 4 PM EST 1,050.88 924.10 4,072
11/17/2017 5 PM EST 1,050.86 924.07 4,076
11/17/2017 6 PM EST 1,050.86 924.07 4,070
11/17/2017 7 PM EST 1,050.84 924.09 4,070
11/17/2017 8 PM EST 1,050.84 924.09 4,088
11/17/2017 9 PM EST 1,050.82 924.06 4,057
11/17/2017 10 PM EST 1,050.82 924.08 4,067
11/17/2017 11 PM EST 1,050.85 921.13 68
11/18/2017 12 AM EST 1,050.85 921.06 0
11/18/2017 1 AM EST 1,050.87 921.06 0
11/18/2017 2 AM EST 1,050.87 921.06 0
11/18/2017 3 AM EST 1,050.88 922.14 174
11/18/2017 4 AM EST 1,050.88 924.02 4,044
11/18/2017 5 AM EST 1,050.87 924.09 4,056
11/18/2017 6 AM EST 1,050.87 924.06 4,069
11/18/2017 7 AM EST 1,050.86 924.08 4,072
11/18/2017 8 AM EST 1,050.84 924.07 4,069
11/18/2017 9 AM EST 1,050.84 924.07 4,070
11/18/2017 10 AM EST 1,050.84 924.10 4,071
11/18/2017 11 AM EST 1,050.83 924.11 4,091

Elevations are in feet above sea level. Discharges are in cubic feet per second and are reported at the end of the hour.